Date,TemperatureHighF,TemperatureAvgF,TemperatureLowF,DewpointHighF,DewpointAvgF,DewpointLowF,HumidityHigh,HumidityAvg,HumidityLow,PressureMaxIn,PressureMinIn,WindSpeedMaxMPH,WindSpeedAvgMPH,GustSpeedMaxMPH,PrecipitationSumIn
2013-1-1,50,48,46,47,39,29,88,72,48,30.08,29.91,4,1,4,0.22
2013-1-2,50,45,42,47,42,38,91,87,80,30.17,29.89,5,0,5,0.25
2013-1-3,46,41,36,38,36,31,87,82,71,30.23,30.12,4,0,4,0.00
2013-1-4,49,40,31,31,29,23,86,66,43,30.29,30.16,8,1,8,0.00
2013-1-5,49,40,32,32,27,22,70,59,46,30.37,30.24,4,0,4,0.00
2013-1-6,50,44,40,39,36,31,81,73,64,30.24,30.03,3,0,3,0.01
2013-1-7,51,42,33,36,32,28,84,70,51,30.41,30.14,4,1,8,0.00
2013-1-8,54,43,32,41,35,27,85,74,57,30.44,30.34,3,0,3,0.00
2013-1-9,66,52,39,53,44,34,86,75,60,30.42,30.32,6,0,6,0.00
2013-1-10,64,55,48,49,44,37,84,68,54,30.51,30.38,7,1,7,0.00
2013-1-11,53,49,44,50,42,32,90,79,55,30.42,30.12,5,0,5,0.22
2013-1-12,69,58,52,63,55,48,93,88,81,30.14,30.07,3,0,3,0.00
2013-1-13,73,63,56,64,58,54,93,83,68,30.13,30.02,5,1,5,0.00
2013-1-14,69,64,59,63,59,55,89,84,80,30.14,30.05,3,0,4,0.00
2013-1-15,63,48,45,60,45,43,92,89,85,30.21,30.03,6,2,6,0.00
2013-1-16,51,47,45,49,45,43,94,92,91,30.05,29.94,5,0,5,0.11
2013-1-17,52,47,34,50,45,32,94,92,89,30.11,29.87,14,2,14,0.93
2013-1-18,46,38,32,35,31,24,92,76,45,30.50,30.11,8,1,8,0.14
2013-1-19,52,38,28,37,30,25,87,74,50,30.48,30.12,5,0,5,0.00
2013-1-20,63,50,39,41,36,32,79,59,38,30.12,29.94,8,2,8,0.00
2013-1-21,58,46,33,37,31,23,81,58,39,30.06,29.83,6,1,6,0.00
2013-1-22,46,36,28,24,11,4,44,36,24,30.26,29.92,11,2,11,0.00
2013-1-23,41,31,23,17,12,5,61,45,33,30.35,30.03,8,1,8,0.00
2013-1-24,37,33,25,25,15,6,68,49,29,30.49,29.93,12,2,12,0.00
2013-1-25,29,26,23,25,14,6,83,62,45,30.50,30.08,3,0,3,0.03
2013-1-26,38,32,29,32,27,24,85,82,74,30.37,30.06,4,0,4,0.02
2013-1-27,40,32,26,29,26,22,88,77,63,30.57,30.36,5,1,5,0.00
2013-1-28,52,43,33,47,36,27,83,76,70,30.47,30.19,5,1,5,0.02
2013-1-29,72,59,49,58,51,45,86,76,59,30.20,30.04,8,2,8,0.00
2013-1-30,72,67,59,64,61,54,90,81,73,30.05,29.35,16,3,16,0.01
2013-1-31,69,49,38,63,34,23,86,56,34,29.99,29.38,15,4,15,0.41
2013-2-1,42,37,29,28,17,6,61,45,27,30.36,29.85,11,2,11,0.00
2013-2-2,44,34,23,34,15,9,69,46,32,30.37,29.99,9,1,9,0.00
2013-2-3,50,44,38,35,30,24,75,59,44,29.99,29.82,9,1,9,0.00
2013-2-4,49,40,30,28,24,20,71,54,39,30.11,29.95,6,1,6,0.00
2013-2-5,61,48,40,37,33,26,67,55,40,29.98,29.83,8,1,8,0.00
2013-2-6,63,48,34,37,31,27,81,55,27,30.26,29.93,7,1,7,0.00
2013-2-7,49,43,38,42,36,31,90,76,59,30.29,29.94,10,2,10,0.32
2013-2-8,55,47,41,46,40,30,91,78,51,30.01,29.75,11,2,11,0.71
2013-2-9,52,42,34,30,25,20,73,52,29,30.32,30.00,13,1,13,0.00
2013-2-10,53,41,29,36,26,22,75,56,34,30.45,30.18,5,1,5,0.01
2013-2-11,63,56,46,59,50,36,92,83,65,30.19,29.88,7,1,7,0.02
2013-2-12,62,55,48,54,39,29,84,56,33,30.05,29.86,8,1,8,0.00
2013-2-13,52,48,45,45,42,37,88,83,60,29.92,29.58,5,1,5,0.21
2013-2-14,53,44,36,38,34,31,84,70,52,30.04,29.79,6,0,6,0.00
2013-2-15,62,46,33,41,34,28,84,65,39,30.06,29.89,7,0,7,0.00
2013-2-16,47,38,32,35,32,28,89,79,62,29.93,29.78,7,1,7,0.21
2013-2-17,38,32,28,29,19,12,88,60,38,30.24,29.87,10,2,10,0.00
2013-2-18,51,36,22,26,21,15,79,56,36,30.38,30.22,5,1,5,0.00
2013-2-19,54,45,35,49,37,24,89,76,54,30.23,29.81,8,1,8,0.06
2013-2-20,54,43,32,39,26,17,83,54,30,30.10,29.91,10,1,10,0.00
2013-2-21,54,42,30,26,21,18,67,45,27,30.23,30.07,10,1,10,0.00
2013-2-22,43,37,34,34,30,21,88,75,43,30.31,30.09,7,1,7,0.38
2013-2-23,44,41,37,41,38,33,91,90,88,30.09,29.77,4,0,4,0.82
2013-2-24,62,51,44,46,40,30,91,69,43,30.00,29.75,9,1,9,0.15
2013-2-25,46,39,34,31,25,20,64,57,48,30.19,30.00,8,2,8,0.00
2013-2-26,56,46,36,54,41,25,94,83,63,30.10,29.51,11,2,11,0.78
2013-2-27,61,51,45,47,42,38,88,71,48,29.74,29.57,8,2,8,0.00
2013-2-28,50,44,38,38,33,28,84,66,48,29.81,29.65,8,1,8,0.00
2013-3-1,50,42,32,32,29,26,80,62,47,29.87,29.79,7,1,7,0.00
2013-3-2,50,40,31,30,26,21,77,58,43,29.87,29.76,8,1,8,0.00
2013-3-3,48,38,31,25,21,16,62,50,38,29.93,29.79,8,2,8,0.00
2013-3-4,51,39,30,22,18,14,56,44,28,30.06,29.92,9,1,9,0.00
2013-3-5,51,43,36,42,33,22,89,70,51,30.04,29.52,6,1,6,0.22
2013-3-6,47,43,38,41,34,28,90,71,54,29.97,29.44,14,3,14,0.00
2013-3-7,52,44,36,33,29,26,73,58,45,30.18,29.96,11,2,11,0.00
2013-3-8,56,45,35,29,26,25,68,49,32,30.24,30.09,14,2,14,0.00
2013-3-9,62,48,36,34,29,25,64,48,30,30.29,30.19,7,1,7,0.00
2013-3-10,68,51,35,35,30,26,76,48,23,30.28,30.17,6,1,6,0.00
2013-3-11,70,60,42,52,44,28,78,57,42,30.21,29.91,8,2,8,0.00
2013-3-12,71,62,52,62,54,35,90,74,48,29.91,29.70,8,2,8,0.35
2013-3-13,60,49,40,35,29,20,70,48,31,30.08,29.90,10,2,11,0.00
2013-3-14,55,43,33,26,21,17,54,42,27,30.19,30.05,10,2,10,0.00
2013-3-15,64,49,33,35,28,21,66,46,32,30.14,29.86,9,1,9,0.00
2013-3-16,78,62,50,51,43,33,66,50,37,29.86,29.61,10,2,10,0.00
2013-3-17,65,53,42,51,44,36,86,70,51,30.14,29.79,8,2,8,0.00
2013-3-18,44,41,38,41,38,36,90,88,83,30.15,29.84,6,1,7,0.18
2013-3-19,68,53,42,47,37,18,91,63,25,29.97,29.77,8,2,8,0.00
2013-3-20,58,49,42,26,20,14,51,32,24,30.07,29.74,7,1,7,0.00
2013-3-21,51,42,34,30,20,11,61,44,30,29.92,29.67,11,2,11,0.00
2013-3-22,54,40,28,22,16,11,54,39,25,30.03,29.91,9,1,9,0.00
2013-3-23,56,47,41,31,26,22,57,44,34,30.01,29.86,4,0,4,0.00
2013-3-24,43,40,37,37,33,27,90,79,57,29.90,29.52,9,1,9,0.51
2013-3-25,50,42,37,38,31,24,87,68,42,29.76,29.50,18,2,18,0.00
2013-3-26,50,44,37,30,27,24,64,52,43,30.05,29.76,10,2,10,0.00
2013-3-27,56,45,35,29,25,21,68,48,31,30.17,30.05,9,2,9,0.00
2013-3-28,58,46,35,29,25,23,62,45,28,30.24,30.09,10,2,10,0.00
2013-3-29,61,48,33,32,28,23,71,47,30,30.28,30.13,7,1,7,0.00
2013-3-30,68,54,42,41,35,28,71,50,29,30.20,30.04,6,1,6,0.00
2013-3-31,68,57,50,56,49,40,89,73,59,30.06,29.77,8,1,8,0.41
2013-4-1,74,62,55,53,47,37,90,63,34,29.92,29.76,8,1,8,0.00
2013-4-2,63,52,42,37,29,25,62,42,26,30.11,29.92,8,1,8,0.00
2013-4-3,63,51,42,29,24,19,50,35,23,30.25,30.09,6,1,6,0.00
2013-4-4,50,44,40,39,31,22,90,64,40,30.32,29.87,10,2,10,0.79
2013-4-5,63,48,40,48,42,37,90,80,56,29.97,29.81,6,1,6,0.05
2013-4-6,66,54,44,42,34,26,82,50,29,30.24,29.96,8,2,8,0.00
2013-4-7,74,56,39,47,39,30,74,53,34,30.24,30.06,7,1,7,0.00
2013-4-8,80,67,54,57,51,44,82,59,41,30.13,30.00,9,1,9,0.00
2013-4-9,87,73,59,60,56,52,83,58,36,30.13,30.01,6,1,6,0.00
2013-4-10,91,77,63,63,59,55,79,55,36,30.06,29.90,7,2,7,0.00
2013-4-11,84,74,64,65,60,55,83,63,44,29.96,29.76,6,1,6,0.00
2013-4-12,82,74,67,70,64,54,88,72,51,29.78,29.56,9,2,9,0.37
2013-4-13,77,66,56,54,43,37,61,44,29,29.96,29.71,8,1,8,0.00
2013-4-14,83,66,50,51,46,40,80,51,25,30.06,29.96,5,1,5,0.00
2013-4-15,73,66,61,57,54,48,77,65,52,30.17,29.98,7,1,7,0.00
2013-4-16,78,66,58,62,57,53,88,74,51,30.26,30.15,4,0,4,0.00
2013-4-17,82,70,58,66,60,54,88,71,54,30.19,30.05,5,0,5,0.00
2013-4-18,82,72,63,62,59,56,82,66,47,30.16,30.00,5,1,5,0.00
2013-4-19,84,73,67,69,64,59,87,74,55,30.01,29.68,9,2,9,0.36
2013-4-20,67,58,50,63,42,33,87,59,32,30.22,29.78,8,1,8,0.06
2013-4-21,62,53,44,42,39,36,83,62,43,30.43,30.22,8,1,8,0.00
2013-4-22,61,50,39,45,38,32,80,66,46,30.44,30.21,6,1,6,0.00
2013-4-23,68,56,48,50,46,43,85,72,52,30.21,30.07,5,1,5,0.02
2013-4-24,80,65,50,59,52,45,88,66,42,30.11,29.92,7,1,7,0.00
2013-4-25,73,64,55,55,47,39,75,56,42,30.23,29.96,9,1,9,0.00
2013-4-26,76,62,52,49,43,34,83,54,26,30.37,30.23,6,1,6,0.00
2013-4-27,76,64,54,48,44,41,65,51,34,30.34,30.21,4,0,4,0.00
2013-4-28,65,60,55,54,48,42,86,67,51,30.22,30.06,2,0,2,0.54
2013-4-29,72,63,55,64,58,51,91,85,72,30.07,29.92,4,0,4,1.24
2013-4-30,65,62,58,61,58,54,93,87,78,30.12,29.95,3,0,3,0.00
2013-5-1,62,59,58,58,56,55,91,88,83,30.27,30.10,6,1,6,0.00
2013-5-2,63,59,56,56,55,50,91,85,79,30.28,30.20,4,1,4,0.00
2013-5-3,71,59,50,56,49,43,90,72,47,30.21,30.11,6,1,6,0.00
2013-5-4,66,56,50,53,48,43,85,74,61,30.16,30.02,8,2,8,0.00
2013-5-5,61,56,50,56,51,45,85,82,76,30.05,29.93,9,2,9,0.00
2013-5-6,68,61,56,64,58,53,93,90,85,29.95,29.77,6,1,6,1.79
2013-5-7,72,61,54,59,54,50,92,79,53,29.90,29.79,5,0,5,0.00
2013-5-8,72,62,54,60,55,49,89,78,61,29.95,29.87,5,0,5,0.11
2013-5-9,82,67,56,62,57,53,91,73,49,30.00,29.92,5,0,5,0.00
2013-5-10,66,63,61,57,56,55,82,79,74,30.01,29.98,1,0,1,0.00
2013-5-11,86,76,69,66,64,62,83,70,47,29.77,29.74,3,1,3,0.11
2013-5-12,77,68,59,63,52,37,86,61,36,29.97,29.74,3,1,3,0.01
2013-5-13,69,59,51,40,38,36,63,45,32,30.13,29.97,4,1,4,0.00
2013-5-14,75,59,45,45,40,36,76,51,29,30.20,30.03,3,0,3,0.00
2013-5-15,91,72,56,63,54,44,71,56,39,30.03,29.84,3,1,3,0.00
2013-5-16,87,78,67,63,60,58,76,56,39,29.93,29.85,3,0,3,0.00
2013-5-17,91,77,66,64,61,59,80,60,39,30.03,29.93,3,0,3,0.00
2013-5-18,79,73,67,69,64,61,86,74,63,30.10,30.02,2,0,2,0.21
2013-5-19,78,71,67,70,66,64,90,84,70,30.11,30.02,3,0,3,0.44
2013-5-20,74,70,68,71,67,65,91,90,88,30.07,29.98,2,0,2,0.76
2013-5-21,82,74,69,72,68,66,91,84,73,30.00,29.91,3,0,3,0.01
2013-5-22,86,76,70,72,68,65,87,77,56,29.99,29.86,2,1,2,0.02
2013-5-23,82,74,71,70,67,66,86,80,64,29.92,29.81,2,1,2,0.18
2013-6-15,89,75,62,65,61,56,82,62,44,30.07,29.99,3,1,3,0.00
2013-6-16,91,78,68,70,62,54,68,59,48,30.08,29.95,3,1,3,0.00
2013-6-17,90,80,73,74,67,63,75,67,57,30.00,29.89,2,1,2,0.00
2013-6-18,86,77,72,73,69,66,85,78,65,29.92,29.70,3,1,3,1.07
2013-6-19,80,73,67,69,66,64,90,79,66,30.08,29.82,2,0,2,0.02
2013-6-20,86,73,65,66,62,56,87,69,50,30.20,30.08,3,1,3,0.00
2013-6-21,86,73,60,65,59,53,83,63,49,30.21,30.13,2,1,2,0.00
2013-6-22,80,73,70,71,68,65,88,82,73,30.16,30.07,3,1,3,0.19
2013-6-23,88,77,70,76,70,66,92,81,63,30.17,30.08,2,0,2,0.01
2013-6-24,89,79,73,76,72,69,87,78,64,30.16,30.04,1,0,1,0.00
2013-6-25,89,79,72,76,70,67,85,76,66,30.09,29.96,2,1,2,0.03
2013-6-26,95,79,71,75,70,66,86,75,52,29.99,29.85,3,1,3,0.51
2013-6-27,92,78,69,77,70,65,89,78,58,29.87,29.67,2,1,2,0.00
2013-6-28,96,81,73,75,71,67,86,74,51,29.71,29.53,2,1,2,0.18
2013-6-29,86,77,70,75,70,66,89,81,68,29.69,29.57,3,0,3,0.63
2013-6-30,89,78,73,77,72,68,86,80,66,29.82,29.68,3,1,3,0.37
2013-7-1,82,76,72,75,71,68,91,85,77,29.95,29.80,3,0,3,1.00
2013-7-2,78,74,73,72,71,69,90,88,84,30.14,29.95,2,0,2,0.74
2013-7-3,87,77,73,77,73,70,92,87,73,30.20,30.11,2,0,2,0.33
2013-7-4,92,80,74,76,72,69,91,78,54,30.24,30.14,4,1,4,0.00
2013-7-5,92,81,74,75,72,69,87,76,58,30.24,30.11,2,0,2,0.00
2013-7-6,88,81,75,75,72,69,85,74,62,30.21,30.08,1,0,1,0.00
2013-7-7,91,81,72,75,71,67,85,73,56,30.14,30.02,3,1,3,0.00
2013-7-8,89,80,74,77,72,70,87,78,67,30.12,30.04,2,0,2,0.63
2013-7-9,89,78,73,78,72,69,91,83,64,30.11,30.03,2,0,2,0.01
2013-7-10,89,80,75,77,73,70,88,80,65,30.06,29.91,5,1,5,0.02
2013-7-11,84,77,73,75,72,70,90,83,75,29.94,29.84,2,0,2,0.22
2013-7-12,76,74,72,72,70,68,91,88,84,29.97,29.83,1,0,1,0.10
2013-7-13,79,74,71,75,71,68,92,89,86,30.14,29.97,3,0,3,0.16
2013-7-14,90,78,71,77,72,68,92,82,64,30.25,30.14,3,1,3,0.02
2013-7-15,92,80,72,75,72,68,91,77,57,30.27,30.20,2,0,2,0.00
2013-7-16,96,82,73,76,72,68,88,73,51,30.23,30.12,2,0,2,0.00
2013-7-17,95,84,77,76,73,71,86,70,50,30.18,30.06,2,0,2,0.00
2013-7-18,91,84,77,77,74,72,84,74,62,30.10,29.99,2,0,2,0.00
2013-7-19,93,84,77,77,74,71,85,73,58,30.05,29.93,3,1,3,0.00
2013-7-20,92,83,77,76,73,71,81,72,58,29.98,29.87,3,1,3,0.00
2013-7-21,90,80,75,76,72,69,83,76,64,29.95,29.85,2,1,2,0.01
2013-7-22,91,80,74,76,73,70,89,78,61,29.91,29.77,3,0,3,0.00
2013-7-23,93,83,76,74,72,70,82,70,55,29.81,29.67,3,1,3,0.00
2013-7-24,94,81,75,73,71,68,84,72,48,29.79,29.68,2,0,2,0.09
2013-7-25,80,75,71,70,68,66,87,80,70,29.98,29.77,2,0,2,0.01
2013-7-26,86,75,65,68,65,61,86,71,53,30.06,29.98,2,0,2,0.00
2013-7-27,88,76,69,71,68,64,87,76,58,30.01,29.89,2,0,2,0.07
2013-7-28,90,78,71,74,70,68,89,77,54,29.95,29.87,3,0,3,0.02
2013-7-29,88,80,73,71,68,64,83,69,51,30.10,29.94,2,1,2,0.00
2013-7-30,87,77,68,68,65,60,77,67,51,30.17,30.08,2,0,2,0.00
2013-7-31,84,77,74,73,70,68,87,79,69,30.10,29.97,2,0,2,0.52
2013-8-1,86,76,71,75,70,68,89,82,67,29.97,29.80,2,0,2,0.11
2013-8-2,89,78,70,74,70,66,91,78,60,29.97,29.86,2,0,2,0.29
2013-8-3,90,80,74,77,73,70,87,80,61,29.97,29.85,2,0,2,0.27
2013-8-4,83,76,71,71,68,63,92,76,52,29.98,29.84,2,1,2,0.00
2013-8-5,83,74,66,66,63,61,86,70,54,30.04,29.95,2,0,2,0.00
2013-8-6,85,76,70,70,66,63,85,72,60,30.02,29.95,2,0,2,0.07
2013-8-7,87,78,71,71,68,65,84,72,55,30.06,29.98,2,0,2,0.00
2013-8-8,91,81,73,73,70,68,85,71,55,30.02,29.94,2,0,2,0.00
2013-8-9,93,84,77,76,73,71,83,72,56,30.00,29.93,3,1,3,0.00
2013-8-10,94,83,76,78,74,71,86,75,57,30.05,29.95,2,1,2,0.22
2013-8-11,94,81,73,77,73,70,89,78,57,30.06,29.95,2,0,2,0.00
2013-8-12,94,84,76,75,73,72,87,71,51,30.00,29.89,3,0,3,0.00
2013-8-13,90,80,74,78,73,70,88,80,65,29.93,29.72,2,0,2,0.44
2013-8-14,79,74,67,72,65,59,82,75,67,30.04,29.77,3,1,3,0.00
2013-8-15,78,68,62,60,58,55,80,70,52,30.11,30.02,2,0,2,0.00
2013-8-16,71,67,62,61,59,56,83,75,67,30.12,30.04,2,0,2,0.00
2013-8-17,72,68,66,69,64,60,92,87,81,30.12,30.06,2,1,2,0.30
2013-8-18,84,74,70,73,68,65,92,83,65,30.15,30.07,2,1,2,0.00
2013-8-19,74,70,67,70,67,64,91,88,83,30.15,30.05,2,0,2,0.44
2013-8-20,81,75,69,74,70,66,91,86,75,30.13,30.06,1,0,1,0.00
2013-8-21,88,77,72,76,72,68,89,84,68,30.17,30.06,2,0,2,0.40
2013-8-22,91,79,70,74,70,67,91,77,54,30.10,29.93,2,0,2,0.00
2013-8-23,90,79,72,74,70,67,86,76,56,30.00,29.87,2,1,2,0.00
2013-8-24,84,74,66,66,62,59,84,68,46,30.24,30.01,2,1,2,0.00
2013-8-25,81,71,63,62,60,57,85,69,47,30.34,30.24,4,1,4,0.00
2013-8-26,86,71,59,64,58,54,84,66,44,30.27,30.06,3,0,3,0.00
2013-8-27,90,76,65,72,65,58,79,69,51,30.07,29.90,2,0,2,0.00
2013-8-28,83,78,72,74,71,67,85,79,72,29.93,29.82,2,0,2,0.00
2013-8-29,86,80,76,74,72,69,81,75,63,29.96,29.78,3,1,3,0.00
2013-8-30,90,77,68,69,67,64,87,71,47,30.01,29.88,2,0,2,0.00
2013-8-31,90,79,70,73,69,65,85,72,56,29.93,29.82,2,0,2,0.00
2013-9-1,89,79,73,79,72,69,88,79,65,29.85,29.73,7,1,7,2.46
2013-9-2,89,78,71,76,72,67,91,81,65,29.84,29.75,2,0,2,0.01
2013-9-3,89,79,74,76,72,70,87,81,67,29.88,29.75,2,0,2,0.07
2013-9-4,84,76,70,72,69,65,89,79,66,30.03,29.88,2,0,2,0.00
2013-9-5,90,77,70,70,66,62,87,71,45,30.04,29.97,2,0,2,0.00
2013-9-6,83,74,66,65,62,57,77,67,50,30.12,30.02,3,1,3,0.00
2013-9-7,85,72,62,64,62,57,84,70,50,30.08,29.92,2,0,2,0.00
2013-9-8,88,75,66,66,64,60,85,70,45,29.94,29.85,2,0,2,0.00
2013-9-9,88,77,68,70,67,63,86,73,56,30.10,29.94,2,0,2,0.00
2013-9-10,91,79,70,71,68,65,87,71,50,30.18,30.09,2,0,2,0.00
2013-9-11,89,79,70,72,68,65,84,70,50,30.16,30.02,2,0,2,0.00
2013-9-12,90,79,72,73,69,66,81,72,56,30.03,29.75,2,0,2,0.03
2013-9-13,86,77,70,69,64,56,82,66,47,29.83,29.70,4,1,4,0.00
2013-9-14,77,68,60,57,52,49,69,59,45,30.08,29.83,4,1,4,0.00
2013-9-15,80,68,57,61,56,51,81,67,50,30.18,30.06,2,0,2,0.00
2013-9-16,84,74,68,70,64,59,88,72,49,30.14,29.98,5,1,5,0.18
2013-9-17,76,68,62,59,55,50,77,64,46,30.26,30.13,4,1,4,0.00
2013-9-18,73,62,53,55,52,47,82,68,52,30.24,30.12,1,0,1,0.00
2013-9-19,76,66,57,61,56,51,83,71,54,30.14,30.03,1,0,1,0.00
2013-9-20,70,67,64,64,62,59,86,82,74,30.04,29.92,1,0,1,0.21
2013-9-21,76,71,66,70,66,62,89,85,80,29.92,29.68,2,0,2,0.41
2013-9-22,76,68,64,67,61,57,91,79,59,29.84,29.66,2,1,2,1.46
2013-9-23,71,64,56,57,54,50,82,72,58,30.02,29.84,0,0,0,0.00
2013-9-24,73,63,55,60,56,50,87,76,62,30.04,29.90,0,0,0,0.00
2013-9-25,71,64,56,60,57,51,88,79,67,29.90,29.81,0,0,0,0.00
2013-9-26,75,67,60,60,58,55,86,72,51,29.98,29.81,0,0,0,0.00
2013-9-27,73,64,57,59,56,53,88,75,59,30.13,29.98,0,0,0,0.00
2013-9-28,72,63,55,58,54,50,86,74,61,30.19,30.10,0,0,0,0.00
2013-9-29,73,63,55,57,54,51,87,74,56,30.11,29.97,5,0,5,0.00
2013-9-30,74,64,56,60,56,52,87,75,55,30.04,29.94,2,0,2,0.00
2013-10-1,81,66,55,63,57,50,88,73,53,30.06,29.96,3,0,3,0.00
2013-10-2,84,70,60,64,60,56,86,71,49,30.07,29.98,3,0,3,0.00
2013-10-3,84,72,62,67,62,57,86,73,51,30.07,30.00,3,0,3,0.00
2013-10-4,85,74,65,68,64,60,86,72,55,30.08,29.99,3,0,3,0.00
2013-10-5,87,74,65,70,64,60,86,72,52,30.06,29.97,2,0,2,0.00
2013-10-6,83,74,67,71,67,62,86,79,67,30.02,29.89,4,0,4,0.00
2013-10-7,76,72,66,71,68,60,89,85,81,29.93,29.81,2,0,2,0.13
2013-10-8,66,61,58,60,51,47,81,70,63,30.13,29.92,7,2,7,0.00
2013-10-9,62,59,55,55,52,50,89,79,72,30.11,30.01,5,2,5,0.07
2013-10-10,60,56,54,57,53,51,91,90,88,30.00,29.87,8,2,8,0.20
2013-10-11,65,61,59,60,57,56,91,89,84,29.90,29.83,4,1,4,0.00